sensor_id;sensor_type;location;lat;lon;timestamp;temperature;humidity
2825;DHT22;1420;51.324;12.344;2023-05-10T00:00:30;11.10;99.90
2825;DHT22;1420;51.324;12.344;2023-05-10T00:02:58;11.20;99.90
2825;DHT22;1420;51.324;12.344;2023-05-10T00:05:26;11.20;99.90
2825;DHT22;1420;51.324;12.344;2023-05-10T00:07:53;11.20;99.90
2825;DHT22;1420;51.324;12.344;2023-05-10T00:10:20;11.20;99.90
2825;DHT22;1420;51.324;12.344;2023-05-10T00:12:47;11.20;99.90
2825;DHT22;1420;51.324;12.344;2023-05-10T00:15:15;11.10;99.90
2825;DHT22;1420;51.324;12.344;2023-05-10T00:17:43;11.10;99.90
2825;DHT22;1420;51.324;12.344;2023-05-10T00:20:10;11.10;99.90
2825;DHT22;1420;51.324;12.344;2023-05-10T00:22:38;11.00;99.90
2825;DHT22;1420;51.324;12.344;2023-05-10T00:25:07;10.90;99.90
2825;DHT22;1420;51.324;12.344;2023-05-10T00:27:34;10.90;99.90
2825;DHT22;1420;51.324;12.344;2023-05-10T00:30:01;10.90;99.90
2825;DHT22;1420;51.324;12.344;2023-05-10T00:32:29;10.80;99.90
2825;DHT22;1420;51.324;12.344;2023-05-10T00:34:57;10.80;99.90
2825;DHT22;1420;51.324;12.344;2023-05-10T00:37:25;10.80;99.90
2825;DHT22;1420;51.324;12.344;2023-05-10T00:39:52;10.70;99.90
2825;DHT22;1420;51.324;12.344;2023-05-10T00:42:19;10.70;99.90
2825;DHT22;1420;51.324;12.344;2023-05-10T00:44:46;10.70;99.90
2825;DHT22;1420;51.324;12.344;2023-05-10T00:47:14;10.80;99.90
2825;DHT22;1420;51.324;12.344;2023-05-10T00:49:41;10.70;99.90
2825;DHT22;1420;51.324;12.344;2023-05-10T00:52:08;10.60;99.90
2825;DHT22;1420;51.324;12.344;2023-05-10T00:54:35;10.60;99.90
2825;DHT22;1420;51.324;12.344;2023-05-10T00:57:02;10.50;99.90
2825;DHT22;1420;51.324;12.344;2023-05-10T00:59:30;10.50;99.90
2825;DHT22;1420;51.324;12.344;2023-05-10T01:01:58;10.50;99.90
2825;DHT22;1420;51.324;12.344;2023-05-10T01:04:25;10.50;99.90
2825;DHT22;1420;51.324;12.344;2023-05-10T01:06:52;10.50;99.90
2825;DHT22;1420;51.324;12.344;2023-05-10T01:09:20;10.40;99.90
2825;DHT22;1420;51.324;12.344;2023-05-10T01:11:46;10.50;99.90
2825;DHT22;1420;51.324;12.344;2023-05-10T01:14:14;10.50;99.90
2825;DHT22;1420;51.324;12.344;2023-05-10T01:16:42;10.30;99.90
2825;DHT22;1420;51.324;12.344;2023-05-10T01:19:26;10.30;99.90
2825;DHT22;1420;51.324;12.344;2023-05-10T01:25:29;10.30;99.90
2825;DHT22;1420;51.324;12.344;2023-05-10T01:27:47;10.30;99.90
2825;DHT22;1420;51.324;12.344;2023-05-10T01:33:11;10.30;99.90
2825;DHT22;1420;51.324;12.344;2023-05-10T01:35:43;10.30;99.90
2825;DHT22;1420;51.324;12.344;2023-05-10T01:40:52;10.30;99.90
2825;DHT22;1420;51.324;12.344;2023-05-10T01:43:21;10.20;99.90
2825;DHT22;1420;51.324;12.344;2023-05-10T01:45:50;10.00;99.90
2825;DHT22;1420;51.324;12.344;2023-05-10T01:48:14;10.00;99.90
2825;DHT22;1420;51.324;12.344;2023-05-10T01:50:43;10.00;99.90
2825;DHT22;1420;51.324;12.344;2023-05-10T01:53:09;10.20;99.90
2825;DHT22;1420;51.324;12.344;2023-05-10T01:55:47;10.10;99.90
2825;DHT22;1420;51.324;12.344;2023-05-10T01:58:23;10.10;99.90
2825;DHT22;1420;51.324;12.344;2023-05-10T02:00:52;10.10;99.90
2825;DHT22;1420;51.324;12.344;2023-05-10T02:03:20;10.00;99.90
2825;DHT22;1420;51.324;12.344;2023-05-10T02:05:46;9.90;99.90
2825;DHT22;1420;51.324;12.344;2023-05-10T02:08:13;10.00;99.90
2825;DHT22;1420;51.324;12.344;2023-05-10T02:10:41;9.90;99.90
2825;DHT22;1420;51.324;12.344;2023-05-10T02:13:09;10.00;99.90
2825;DHT22;1420;51.324;12.344;2023-05-10T02:15:36;10.00;99.90
2825;DHT22;1420;51.324;12.344;2023-05-10T02:18:04;10.10;99.90
2825;DHT22;1420;51.324;12.344;2023-05-10T02:20:32;10.00;99.90
2825;DHT22;1420;51.324;12.344;2023-05-10T02:22:59;10.10;99.90
2825;DHT22;1420;51.324;12.344;2023-05-10T02:25:26;10.00;99.90
2825;DHT22;1420;51.324;12.344;2023-05-10T02:27:55;10.00;99.90
2825;DHT22;1420;51.324;12.344;2023-05-10T02:30:21;9.90;99.90
2825;DHT22;1420;51.324;12.344;2023-05-10T02:32:49;9.90;99.90
2825;DHT22;1420;51.324;12.344;2023-05-10T02:35:16;9.80;99.90
2825;DHT22;1420;51.324;12.344;2023-05-10T02:37:43;9.80;99.90
2825;DHT22;1420;51.324;12.344;2023-05-10T02:40:10;9.80;99.90
2825;DHT22;1420;51.324;12.344;2023-05-10T02:42:38;9.70;99.90
2825;DHT22;1420;51.324;12.344;2023-05-10T02:45:10;9.70;99.90
2825;DHT22;1420;51.324;12.344;2023-05-10T02:47:34;9.60;99.90
2825;DHT22;1420;51.324;12.344;2023-05-10T02:50:02;9.60;99.90
2825;DHT22;1420;51.324;12.344;2023-05-10T02:52:30;9.70;99.90
2825;DHT22;1420;51.324;12.344;2023-05-10T02:54:58;9.60;99.90
2825;DHT22;1420;51.324;12.344;2023-05-10T02:57:26;9.50;99.90
2825;DHT22;1420;51.324;12.344;2023-05-10T02:59:52;9.50;99.90
2825;DHT22;1420;51.324;12.344;2023-05-10T03:02:20;9.60;99.90
2825;DHT22;1420;51.324;12.344;2023-05-10T03:04:47;9.60;99.90
2825;DHT22;1420;51.324;12.344;2023-05-10T03:07:14;9.70;99.90
2825;DHT22;1420;51.324;12.344;2023-05-10T03:09:41;9.60;99.90
2825;DHT22;1420;51.324;12.344;2023-05-10T03:15:03;9.60;99.90
2825;DHT22;1420;51.324;12.344;2023-05-10T03:17:35;9.70;99.90
2825;DHT22;1420;51.324;12.344;2023-05-10T03:20:06;9.70;99.90
2825;DHT22;1420;51.324;12.344;2023-05-10T03:22:36;9.60;99.90
2825;DHT22;1420;51.324;12.344;2023-05-10T03:25:01;9.70;99.90
2825;DHT22;1420;51.324;12.344;2023-05-10T03:27:29;9.60;99.90
2825;DHT22;1420;51.324;12.344;2023-05-10T03:29:56;9.50;99.90
2825;DHT22;1420;51.324;12.344;2023-05-10T03:32:23;9.50;99.90
2825;DHT22;1420;51.324;12.344;2023-05-10T03:34:50;9.60;99.90
2825;DHT22;1420;51.324;12.344;2023-05-10T03:37:18;9.50;99.90
2825;DHT22;1420;51.324;12.344;2023-05-10T03:39:45;9.40;99.90
2825;DHT22;1420;51.324;12.344;2023-05-10T03:42:13;9.50;99.90
2825;DHT22;1420;51.324;12.344;2023-05-10T03:44:40;9.70;99.90
2825;DHT22;1420;51.324;12.344;2023-05-10T03:47:08;9.80;99.90
2825;DHT22;1420;51.324;12.344;2023-05-10T03:49:36;9.90;99.90
2825;DHT22;1420;51.324;12.344;2023-05-10T03:52:03;9.90;99.90
2825;DHT22;1420;51.324;12.344;2023-05-10T03:54:30;9.90;99.90
2825;DHT22;1420;51.324;12.344;2023-05-10T03:56:58;9.90;99.90
2825;DHT22;1420;51.324;12.344;2023-05-10T03:59:25;10.00;99.90
2825;DHT22;1420;51.324;12.344;2023-05-10T04:01:52;10.00;99.90
2825;DHT22;1420;51.324;12.344;2023-05-10T04:04:19;10.00;99.90
2825;DHT22;1420;51.324;12.344;2023-05-10T04:06:47;10.20;99.90
2825;DHT22;1420;51.324;12.344;2023-05-10T04:09:14;10.30;99.90
2825;DHT22;1420;51.324;12.344;2023-05-10T04:11:41;10.40;99.90
2825;DHT22;1420;51.324;12.344;2023-05-10T04:14:09;10.50;99.90
2825;DHT22;1420;51.324;12.344;2023-05-10T04:16:36;10.40;99.90
2825;DHT22;1420;51.324;12.344;2023-05-10T04:19:03;10.60;99.90
2825;DHT22;1420;51.324;12.344;2023-05-10T04:21:30;10.70;99.90
2825;DHT22;1420;51.324;12.344;2023-05-10T04:23:58;10.60;99.90
2825;DHT22;1420;51.324;12.344;2023-05-10T04:26:25;10.70;99.90
2825;DHT22;1420;51.324;12.344;2023-05-10T04:28:52;10.80;99.90
2825;DHT22;1420;51.324;12.344;2023-05-10T04:31:20;10.90;99.90
2825;DHT22;1420;51.324;12.344;2023-05-10T04:33:47;10.90;99.90
2825;DHT22;1420;51.324;12.344;2023-05-10T04:36:15;11.00;99.90
2825;DHT22;1420;51.324;12.344;2023-05-10T04:38:42;11.10;99.90
2825;DHT22;1420;51.324;12.344;2023-05-10T04:41:09;11.20;99.90
2825;DHT22;1420;51.324;12.344;2023-05-10T04:43:37;11.30;99.90
2825;DHT22;1420;51.324;12.344;2023-05-10T04:46:04;11.50;99.90
2825;DHT22;1420;51.324;12.344;2023-05-10T04:48:31;11.70;99.90
2825;DHT22;1420;51.324;12.344;2023-05-10T04:50:59;11.60;99.90
2825;DHT22;1420;51.324;12.344;2023-05-10T04:53:26;11.80;99.90
2825;DHT22;1420;51.324;12.344;2023-05-10T04:55:53;11.90;99.90
2825;DHT22;1420;51.324;12.344;2023-05-10T04:58:20;12.10;99.90
2825;DHT22;1420;51.324;12.344;2023-05-10T05:00:48;12.20;99.90
2825;DHT22;1420;51.324;12.344;2023-05-10T05:03:15;12.50;99.90
2825;DHT22;1420;51.324;12.344;2023-05-10T05:05:43;12.50;99.90
2825;DHT22;1420;51.324;12.344;2023-05-10T05:08:10;12.70;99.90
2825;DHT22;1420;51.324;12.344;2023-05-10T05:10:38;13.00;99.90
2825;DHT22;1420;51.324;12.344;2023-05-10T05:13:05;13.00;99.90
2825;DHT22;1420;51.324;12.344;2023-05-10T05:15:33;13.10;99.90
2825;DHT22;1420;51.324;12.344;2023-05-10T05:18:00;13.30;99.90
2825;DHT22;1420;51.324;12.344;2023-05-10T05:20:27;13.40;99.90
2825;DHT22;1420;51.324;12.344;2023-05-10T05:22:55;13.60;99.90
2825;DHT22;1420;51.324;12.344;2023-05-10T05:25:23;13.60;99.90
2825;DHT22;1420;51.324;12.344;2023-05-10T05:27:50;13.60;99.90
2825;DHT22;1420;51.324;12.344;2023-05-10T05:30:18;13.70;99.90
2825;DHT22;1420;51.324;12.344;2023-05-10T05:32:45;13.90;99.90
2825;DHT22;1420;51.324;12.344;2023-05-10T05:35:12;14.10;99.90
2825;DHT22;1420;51.324;12.344;2023-05-10T05:37:39;14.30;99.90
2825;DHT22;1420;51.324;12.344;2023-05-10T05:40:07;14.50;99.90
2825;DHT22;1420;51.324;12.344;2023-05-10T05:42:35;14.70;99.90
2825;DHT22;1420;51.324;12.344;2023-05-10T05:45:02;14.60;99.90
2825;DHT22;1420;51.324;12.344;2023-05-10T05:47:29;14.30;99.90
2825;DHT22;1420;51.324;12.344;2023-05-10T05:49:56;14.30;99.90
2825;DHT22;1420;51.324;12.344;2023-05-10T05:52:24;14.30;99.90
2825;DHT22;1420;51.324;12.344;2023-05-10T05:54:51;14.30;99.90
2825;DHT22;1420;51.324;12.344;2023-05-10T05:57:19;14.40;99.90
2825;DHT22;1420;51.324;12.344;2023-05-10T05:59:47;14.30;99.90
2825;DHT22;1420;51.324;12.344;2023-05-10T06:02:14;14.20;99.90
2825;DHT22;1420;51.324;12.344;2023-05-10T06:04:41;14.50;99.90
2825;DHT22;1420;51.324;12.344;2023-05-10T06:07:09;14.70;99.90
2825;DHT22;1420;51.324;12.344;2023-05-10T06:09:36;14.80;99.90
2825;DHT22;1420;51.324;12.344;2023-05-10T06:12:04;14.70;99.90
2825;DHT22;1420;51.324;12.344;2023-05-10T06:14:31;15.10;99.90
2825;DHT22;1420;51.324;12.344;2023-05-10T06:16:59;15.30;99.90
2825;DHT22;1420;51.324;12.344;2023-05-10T06:19:27;15.50;99.90
2825;DHT22;1420;51.324;12.344;2023-05-10T06:21:54;15.40;99.90
2825;DHT22;1420;51.324;12.344;2023-05-10T06:24:21;15.60;99.90
2825;DHT22;1420;51.324;12.344;2023-05-10T06:26:49;15.80;99.90
2825;DHT22;1420;51.324;12.344;2023-05-10T06:29:17;16.20;99.90
2825;DHT22;1420;51.324;12.344;2023-05-10T06:31:45;16.40;99.90
2825;DHT22;1420;51.324;12.344;2023-05-10T06:34:12;16.40;99.90
2825;DHT22;1420;51.324;12.344;2023-05-10T06:36:39;16.10;99.90
2825;DHT22;1420;51.324;12.344;2023-05-10T06:39:06;16.20;99.90
2825;DHT22;1420;51.324;12.344;2023-05-10T06:41:33;16.60;99.90
2825;DHT22;1420;51.324;12.344;2023-05-10T06:44:01;17.00;98.60
2825;DHT22;1420;51.324;12.344;2023-05-10T06:46:28;17.90;95.10
2825;DHT22;1420;51.324;12.344;2023-05-10T06:48:56;18.10;93.00
2825;DHT22;1420;51.324;12.344;2023-05-10T06:51:23;18.00;93.00
2825;DHT22;1420;51.324;12.344;2023-05-10T06:53:50;18.20;93.00
2825;DHT22;1420;51.324;12.344;2023-05-10T06:56:17;17.80;91.10
2825;DHT22;1420;51.324;12.344;2023-05-10T06:58:45;17.70;92.00
2825;DHT22;1420;51.324;12.344;2023-05-10T07:01:12;17.40;92.00
2825;DHT22;1420;51.324;12.344;2023-05-10T07:03:39;17.70;90.70
2825;DHT22;1420;51.324;12.344;2023-05-10T07:06:07;17.80;91.70
2825;DHT22;1420;51.324;12.344;2023-05-10T07:08:34;17.80;91.60
2825;DHT22;1420;51.324;12.344;2023-05-10T07:11:03;18.10;89.30
2825;DHT22;1420;51.324;12.344;2023-05-10T07:13:31;18.40;88.30
2825;DHT22;1420;51.324;12.344;2023-05-10T07:15:59;19.70;82.80
2825;DHT22;1420;51.324;12.344;2023-05-10T07:18:26;19.60;81.80
2825;DHT22;1420;51.324;12.344;2023-05-10T07:20:53;19.90;81.80
2825;DHT22;1420;51.324;12.344;2023-05-10T07:23:20;20.40;74.30
2825;DHT22;1420;51.324;12.344;2023-05-10T07:25:48;20.50;72.80
2825;DHT22;1420;51.324;12.344;2023-05-10T07:28:15;20.50;72.80
2825;DHT22;1420;51.324;12.344;2023-05-10T07:30:43;20.80;70.00
2825;DHT22;1420;51.324;12.344;2023-05-10T07:33:12;20.40;70.40
2825;DHT22;1420;51.324;12.344;2023-05-10T07:35:38;20.30;70.30
2825;DHT22;1420;51.324;12.344;2023-05-10T07:38:06;20.10;70.80
2825;DHT22;1420;51.324;12.344;2023-05-10T07:40:33;19.80;71.40
2825;DHT22;1420;51.324;12.344;2023-05-10T07:43:00;19.60;73.10
2825;DHT22;1420;51.324;12.344;2023-05-10T07:45:27;19.40;74.70
2825;DHT22;1420;51.324;12.344;2023-05-10T07:47:54;19.40;75.30
2825;DHT22;1420;51.324;12.344;2023-05-10T07:50:22;19.30;73.40
2825;DHT22;1420;51.324;12.344;2023-05-10T07:52:49;19.00;76.10
2825;DHT22;1420;51.324;12.344;2023-05-10T07:55:17;18.30;80.30
2825;DHT22;1420;51.324;12.344;2023-05-10T07:57:44;18.30;82.40
2825;DHT22;1420;51.324;12.344;2023-05-10T08:00:13;18.30;82.30
2825;DHT22;1420;51.324;12.344;2023-05-10T08:02:40;18.10;83.40
2825;DHT22;1420;51.324;12.344;2023-05-10T08:05:07;18.20;84.10
2825;DHT22;1420;51.324;12.344;2023-05-10T08:07:35;18.20;85.70
2825;DHT22;1420;51.324;12.344;2023-05-10T08:10:03;18.00;88.30
2825;DHT22;1420;51.324;12.344;2023-05-10T08:12:30;18.00;88.30
2825;DHT22;1420;51.324;12.344;2023-05-10T08:14:58;18.60;86.80
2825;DHT22;1420;51.324;12.344;2023-05-10T08:17:25;18.20;84.90
2825;DHT22;1420;51.324;12.344;2023-05-10T08:19:53;18.00;89.40
2825;DHT22;1420;51.324;12.344;2023-05-10T08:22:20;17.90;90.70
2825;DHT22;1420;51.324;12.344;2023-05-10T08:24:47;17.60;92.60
2825;DHT22;1420;51.324;12.344;2023-05-10T08:27:14;17.50;93.80
2825;DHT22;1420;51.324;12.344;2023-05-10T08:29:41;17.70;93.80
2825;DHT22;1420;51.324;12.344;2023-05-10T08:32:09;17.80;94.90
2825;DHT22;1420;51.324;12.344;2023-05-10T08:34:36;17.70;96.20
2825;DHT22;1420;51.324;12.344;2023-05-10T08:37:03;17.70;96.40
2825;DHT22;1420;51.324;12.344;2023-05-10T08:39:33;17.30;97.60
2825;DHT22;1420;51.324;12.344;2023-05-10T08:41:58;17.30;99.60
2825;DHT22;1420;51.324;12.344;2023-05-10T08:44:26;17.00;99.90
2825;DHT22;1420;51.324;12.344;2023-05-10T08:46:53;17.00;99.90
2825;DHT22;1420;51.324;12.344;2023-05-10T08:49:20;17.20;99.90
2825;DHT22;1420;51.324;12.344;2023-05-10T08:51:49;17.40;99.90
2825;DHT22;1420;51.324;12.344;2023-05-10T08:54:14;17.10;99.90
2825;DHT22;1420;51.324;12.344;2023-05-10T08:56:42;17.20;99.90
2825;DHT22;1420;51.324;12.344;2023-05-10T08:59:09;17.00;99.90
2825;DHT22;1420;51.324;12.344;2023-05-10T09:01:36;16.70;99.90
2825;DHT22;1420;51.324;12.344;2023-05-10T09:04:03;16.20;99.90
2825;DHT22;1420;51.324;12.344;2023-05-10T09:06:30;15.90;99.90
2825;DHT22;1420;51.324;12.344;2023-05-10T09:08:58;15.60;99.90
2825;DHT22;1420;51.324;12.344;2023-05-10T09:11:25;15.40;99.90
2825;DHT22;1420;51.324;12.344;2023-05-10T09:13:52;15.30;99.90
2825;DHT22;1420;51.324;12.344;2023-05-10T09:16:19;15.20;99.90
2825;DHT22;1420;51.324;12.344;2023-05-10T09:18:47;15.10;99.90
2825;DHT22;1420;51.324;12.344;2023-05-10T09:21:15;14.70;99.90
2825;DHT22;1420;51.324;12.344;2023-05-10T09:23:43;14.70;99.90
2825;DHT22;1420;51.324;12.344;2023-05-10T09:26:11;14.80;99.90
2825;DHT22;1420;51.324;12.344;2023-05-10T09:28:52;14.70;99.90
2825;DHT22;1420;51.324;12.344;2023-05-10T09:31:18;14.40;99.90
2825;DHT22;1420;51.324;12.344;2023-05-10T09:33:46;14.30;99.90
2825;DHT22;1420;51.324;12.344;2023-05-10T09:36:13;14.20;99.90
2825;DHT22;1420;51.324;12.344;2023-05-10T09:38:46;14.40;99.90
2825;DHT22;1420;51.324;12.344;2023-05-10T09:41:18;14.10;99.90
2825;DHT22;1420;51.324;12.344;2023-05-10T09:43:45;14.10;99.90
2825;DHT22;1420;51.324;12.344;2023-05-10T09:46:13;14.20;99.90
2825;DHT22;1420;51.324;12.344;2023-05-10T09:48:43;14.10;99.90
2825;DHT22;1420;51.324;12.344;2023-05-10T09:51:26;14.40;99.90
2825;DHT22;1420;51.324;12.344;2023-05-10T09:56:33;14.40;99.90
2825;DHT22;1420;51.324;12.344;2023-05-10T09:59:02;14.30;99.90
2825;DHT22;1420;51.324;12.344;2023-05-10T10:01:30;14.20;99.90
2825;DHT22;1420;51.324;12.344;2023-05-10T10:03:57;14.20;99.90
2825;DHT22;1420;51.324;12.344;2023-05-10T10:06:24;14.10;99.90
2825;DHT22;1420;51.324;12.344;2023-05-10T10:08:51;14.10;99.90
2825;DHT22;1420;51.324;12.344;2023-05-10T10:11:19;14.40;99.90
2825;DHT22;1420;51.324;12.344;2023-05-10T10:13:46;14.40;99.90
2825;DHT22;1420;51.324;12.344;2023-05-10T10:16:13;14.60;99.90
2825;DHT22;1420;51.324;12.344;2023-05-10T10:18:40;14.60;99.90
2825;DHT22;1420;51.324;12.344;2023-05-10T10:21:08;14.60;99.90
2825;DHT22;1420;51.324;12.344;2023-05-10T10:23:35;14.70;99.90
2825;DHT22;1420;51.324;12.344;2023-05-10T10:26:02;14.40;99.90
2825;DHT22;1420;51.324;12.344;2023-05-10T10:29:39;14.60;99.90
2825;DHT22;1420;51.324;12.344;2023-05-10T10:31:33;14.60;99.90
2825;DHT22;1420;51.324;12.344;2023-05-10T10:34:05;14.60;99.90
2825;DHT22;1420;51.324;12.344;2023-05-10T10:36:31;14.70;99.90
2825;DHT22;1420;51.324;12.344;2023-05-10T10:38:58;14.70;99.90
2825;DHT22;1420;51.324;12.344;2023-05-10T10:41:31;14.60;99.90
2825;DHT22;1420;51.324;12.344;2023-05-10T10:46:57;14.70;99.90
2825;DHT22;1420;51.324;12.344;2023-05-10T10:49:09;14.70;99.90
2825;DHT22;1420;51.324;12.344;2023-05-10T10:51:38;14.60;99.90
2825;DHT22;1420;51.324;12.344;2023-05-10T10:54:10;14.60;99.90
2825;DHT22;1420;51.324;12.344;2023-05-10T10:56:37;14.60;99.90
2825;DHT22;1420;51.324;12.344;2023-05-10T10:59:04;14.70;99.90
2825;DHT22;1420;51.324;12.344;2023-05-10T11:01:33;14.80;99.90
2825;DHT22;1420;51.324;12.344;2023-05-10T11:04:16;14.60;99.90
2825;DHT22;1420;51.324;12.344;2023-05-10T11:06:43;14.80;99.90
2825;DHT22;1420;51.324;12.344;2023-05-10T11:09:11;14.80;99.90
2825;DHT22;1420;51.324;12.344;2023-05-10T11:11:50;14.70;99.90
2825;DHT22;1420;51.324;12.344;2023-05-10T11:14:18;14.60;99.90
2825;DHT22;1420;51.324;12.344;2023-05-10T11:16:43;14.50;99.90
2825;DHT22;1420;51.324;12.344;2023-05-10T11:19:11;14.60;99.90
2825;DHT22;1420;51.324;12.344;2023-05-10T11:21:47;14.80;99.90
2825;DHT22;1420;51.324;12.344;2023-05-10T11:24:14;14.70;99.90
2825;DHT22;1420;51.324;12.344;2023-05-10T11:26:42;15.10;99.90
2825;DHT22;1420;51.324;12.344;2023-05-10T11:29:09;15.10;99.90
2825;DHT22;1420;51.324;12.344;2023-05-10T11:31:41;15.20;99.90
2825;DHT22;1420;51.324;12.344;2023-05-10T11:34:05;15.20;99.90
2825;DHT22;1420;51.324;12.344;2023-05-10T11:36:33;15.20;99.90
2825;DHT22;1420;51.324;12.344;2023-05-10T11:38:59;15.20;99.90
2825;DHT22;1420;51.324;12.344;2023-05-10T11:41:28;15.20;99.90
2825;DHT22;1420;51.324;12.344;2023-05-10T11:43:55;15.20;99.90
2825;DHT22;1420;51.324;12.344;2023-05-10T11:46:24;15.20;99.90
2825;DHT22;1420;51.324;12.344;2023-05-10T11:48:51;15.10;99.90
2825;DHT22;1420;51.324;12.344;2023-05-10T11:51:21;15.10;99.90
2825;DHT22;1420;51.324;12.344;2023-05-10T11:53:48;15.10;99.90
2825;DHT22;1420;51.324;12.344;2023-05-10T11:56:15;15.20;99.90
2825;DHT22;1420;51.324;12.344;2023-05-10T11:58:43;15.20;99.90
2825;DHT22;1420;51.324;12.344;2023-05-10T12:01:10;15.40;99.90
2825;DHT22;1420;51.324;12.344;2023-05-10T12:03:37;15.40;99.90
2825;DHT22;1420;51.324;12.344;2023-05-10T12:06:06;15.40;99.90
2825;DHT22;1420;51.324;12.344;2023-05-10T12:08:32;15.40;99.90
2825;DHT22;1420;51.324;12.344;2023-05-10T12:11:04;15.30;99.90
2825;DHT22;1420;51.324;12.344;2023-05-10T12:13:31;15.40;99.90
2825;DHT22;1420;51.324;12.344;2023-05-10T12:15:59;15.40;99.90
2825;DHT22;1420;51.324;12.344;2023-05-10T12:18:27;15.40;99.90
2825;DHT22;1420;51.324;12.344;2023-05-10T12:20:54;15.40;99.90
2825;DHT22;1420;51.324;12.344;2023-05-10T12:23:22;15.30;99.90
2825;DHT22;1420;51.324;12.344;2023-05-10T12:25:49;15.40;99.90
2825;DHT22;1420;51.324;12.344;2023-05-10T12:28:18;15.50;99.90
2825;DHT22;1420;51.324;12.344;2023-05-10T12:30:43;15.80;99.90
2825;DHT22;1420;51.324;12.344;2023-05-10T12:33:11;16.10;99.90
2825;DHT22;1420;51.324;12.344;2023-05-10T12:35:44;16.20;99.90
2825;DHT22;1420;51.324;12.344;2023-05-10T12:38:26;16.10;99.90
2825;DHT22;1420;51.324;12.344;2023-05-10T12:40:53;15.90;99.90
2825;DHT22;1420;51.324;12.344;2023-05-10T12:43:21;15.70;99.90
2825;DHT22;1420;51.324;12.344;2023-05-10T12:45:49;15.80;99.90
2825;DHT22;1420;51.324;12.344;2023-05-10T12:48:16;15.80;99.90
2825;DHT22;1420;51.324;12.344;2023-05-10T12:50:44;16.00;99.90
2825;DHT22;1420;51.324;12.344;2023-05-10T12:53:14;15.90;99.90
2825;DHT22;1420;51.324;12.344;2023-05-10T12:55:41;15.90;99.90
2825;DHT22;1420;51.324;12.344;2023-05-10T12:58:08;16.10;99.90
2825;DHT22;1420;51.324;12.344;2023-05-10T13:00:35;16.10;99.90
2825;DHT22;1420;51.324;12.344;2023-05-10T13:03:04;16.50;99.90
2825;DHT22;1420;51.324;12.344;2023-05-10T13:05:33;16.40;99.90
2825;DHT22;1420;51.324;12.344;2023-05-10T13:08:00;16.60;99.90
2825;DHT22;1420;51.324;12.344;2023-05-10T13:10:29;16.60;99.90
2825;DHT22;1420;51.324;12.344;2023-05-10T13:12:56;16.60;99.90
2825;DHT22;1420;51.324;12.344;2023-05-10T13:15:24;16.50;99.90
2825;DHT22;1420;51.324;12.344;2023-05-10T13:17:51;16.40;99.90
2825;DHT22;1420;51.324;12.344;2023-05-10T13:20:18;16.50;99.90
2825;DHT22;1420;51.324;12.344;2023-05-10T13:22:45;16.60;99.90
2825;DHT22;1420;51.324;12.344;2023-05-10T13:25:13;16.50;99.90
2825;DHT22;1420;51.324;12.344;2023-05-10T13:27:41;16.60;99.90
2825;DHT22;1420;51.324;12.344;2023-05-10T13:30:09;16.60;99.90
2825;DHT22;1420;51.324;12.344;2023-05-10T13:32:36;16.30;99.90
2825;DHT22;1420;51.324;12.344;2023-05-10T13:35:03;16.50;99.90
2825;DHT22;1420;51.324;12.344;2023-05-10T13:37:31;16.50;99.90
2825;DHT22;1420;51.324;12.344;2023-05-10T13:39:58;16.50;99.90
2825;DHT22;1420;51.324;12.344;2023-05-10T13:42:25;16.40;99.90
2825;DHT22;1420;51.324;12.344;2023-05-10T13:44:52;16.50;99.90
2825;DHT22;1420;51.324;12.344;2023-05-10T13:47:20;16.40;99.90
2825;DHT22;1420;51.324;12.344;2023-05-10T13:49:47;16.30;99.90
2825;DHT22;1420;51.324;12.344;2023-05-10T13:52:14;16.30;99.90
2825;DHT22;1420;51.324;12.344;2023-05-10T13:54:42;16.10;99.90
2825;DHT22;1420;51.324;12.344;2023-05-10T13:57:09;16.10;99.90
2825;DHT22;1420;51.324;12.344;2023-05-10T13:59:37;16.10;99.90
2825;DHT22;1420;51.324;12.344;2023-05-10T14:02:04;16.20;99.90
2825;DHT22;1420;51.324;12.344;2023-05-10T14:04:31;16.20;99.90
2825;DHT22;1420;51.324;12.344;2023-05-10T14:06:58;16.20;99.90
2825;DHT22;1420;51.324;12.344;2023-05-10T14:09:25;16.20;99.90
2825;DHT22;1420;51.324;12.344;2023-05-10T14:11:53;15.80;99.90
2825;DHT22;1420;51.324;12.344;2023-05-10T14:14:21;15.80;99.90
2825;DHT22;1420;51.324;12.344;2023-05-10T14:16:49;15.80;99.90
2825;DHT22;1420;51.324;12.344;2023-05-10T14:19:16;15.80;99.90
2825;DHT22;1420;51.324;12.344;2023-05-10T14:21:43;16.00;99.90
2825;DHT22;1420;51.324;12.344;2023-05-10T14:24:11;15.80;99.90
2825;DHT22;1420;51.324;12.344;2023-05-10T14:26:38;15.80;99.90
2825;DHT22;1420;51.324;12.344;2023-05-10T14:29:05;15.80;99.90
2825;DHT22;1420;51.324;12.344;2023-05-10T14:31:33;15.60;99.90
2825;DHT22;1420;51.324;12.344;2023-05-10T14:34:00;15.50;99.90
2825;DHT22;1420;51.324;12.344;2023-05-10T14:36:27;15.30;99.90
2825;DHT22;1420;51.324;12.344;2023-05-10T14:38:54;15.30;99.90
2825;DHT22;1420;51.324;12.344;2023-05-10T14:41:21;15.30;99.90
2825;DHT22;1420;51.324;12.344;2023-05-10T14:43:49;15.30;99.90
2825;DHT22;1420;51.324;12.344;2023-05-10T14:46:16;15.40;99.90
2825;DHT22;1420;51.324;12.344;2023-05-10T14:48:43;15.40;99.90
2825;DHT22;1420;51.324;12.344;2023-05-10T14:51:10;15.40;99.90
2825;DHT22;1420;51.324;12.344;2023-05-10T14:53:38;15.40;99.90
2825;DHT22;1420;51.324;12.344;2023-05-10T14:56:06;15.40;99.90
2825;DHT22;1420;51.324;12.344;2023-05-10T14:58:33;15.20;99.90
2825;DHT22;1420;51.324;12.344;2023-05-10T15:01:00;15.10;99.90
2825;DHT22;1420;51.324;12.344;2023-05-10T15:03:27;15.20;99.90
2825;DHT22;1420;51.324;12.344;2023-05-10T15:05:54;15.10;99.90
2825;DHT22;1420;51.324;12.344;2023-05-10T15:08:22;15.10;99.90
2825;DHT22;1420;51.324;12.344;2023-05-10T15:10:49;14.80;99.90
2825;DHT22;1420;51.324;12.344;2023-05-10T15:13:16;14.80;99.90
2825;DHT22;1420;51.324;12.344;2023-05-10T15:15:43;14.70;99.90
2825;DHT22;1420;51.324;12.344;2023-05-10T15:18:11;14.60;99.90
2825;DHT22;1420;51.324;12.344;2023-05-10T15:20:38;14.40;99.90
2825;DHT22;1420;51.324;12.344;2023-05-10T15:23:06;14.40;99.90
2825;DHT22;1420;51.324;12.344;2023-05-10T15:25:33;14.30;99.90
2825;DHT22;1420;51.324;12.344;2023-05-10T15:28:01;14.40;99.90
2825;DHT22;1420;51.324;12.344;2023-05-10T15:30:28;14.40;99.90
2825;DHT22;1420;51.324;12.344;2023-05-10T15:32:55;14.30;99.90
2825;DHT22;1420;51.324;12.344;2023-05-10T15:35:23;14.40;99.90
2825;DHT22;1420;51.324;12.344;2023-05-10T15:37:51;14.30;99.90
2825;DHT22;1420;51.324;12.344;2023-05-10T15:40:18;14.20;99.90
2825;DHT22;1420;51.324;12.344;2023-05-10T15:42:45;14.20;99.90
2825;DHT22;1420;51.324;12.344;2023-05-10T15:45:12;14.20;99.90
2825;DHT22;1420;51.324;12.344;2023-05-10T15:47:39;14.20;99.90
2825;DHT22;1420;51.324;12.344;2023-05-10T15:50:08;14.40;99.90
2825;DHT22;1420;51.324;12.344;2023-05-10T15:52:35;14.30;99.90
2825;DHT22;1420;51.324;12.344;2023-05-10T15:55:03;14.40;99.90
2825;DHT22;1420;51.324;12.344;2023-05-10T15:57:30;14.40;99.90
2825;DHT22;1420;51.324;12.344;2023-05-10T15:59:57;14.50;99.90
2825;DHT22;1420;51.324;12.344;2023-05-10T16:02:25;14.50;99.90
2825;DHT22;1420;51.324;12.344;2023-05-10T16:04:52;14.40;99.90
2825;DHT22;1420;51.324;12.344;2023-05-10T16:07:20;14.60;99.90